This is the latest recevied weather packets stored in our database for station/object NK7E-2. If no packets are shown the sender has not sent any weather packets the latest 1 day(s).
| Time | Temp. | Humidity | Pressure | Rain* | Wind** | Luminosity | Snow |
|---|---|---|---|---|---|---|---|
| 1778060717 | 12.78° C | 52% | 1020.4 hPa | 0 mm | - | - | - |
| 1778060117 | 12.78° C | 51% | 1020.3 hPa | 0 mm | - | - | - |
| 1778059517 | 12.78° C | 52% | 1020.3 hPa | 0 mm | - | - | - |
| 1778058917 | 12.78° C | 52% | 1020.4 hPa | 0 mm | - | - | - |
| 1778058317 | 12.22° C | 53% | 1020.2 hPa | 0 mm | - | - | - |
| 1778057717 | 11.67° C | 56% | 1019.8 hPa | 0 mm | - | - | - |
| 1778057117 | 11.67° C | 57% | 1019.6 hPa | 0 mm | - | - | - |
| 1778056517 | 11.67° C | 55% | 1019.7 hPa | 0 mm | - | - | - |
| 1778055917 | 12.22° C | 54% | 1020.1 hPa | 0 mm | - | - | - |
| 1778055317 | 12.22° C | 56% | 1020 hPa | 0 mm | - | - | - |
| 1778054717 | 12.22° C | 55% | 1020.1 hPa | 0 mm | - | - | - |
| 1778054117 | 12.22° C | 55% | 1020.1 hPa | 0 mm | - | - | - |
| 1778053517 | 12.22° C | 56% | 1020.2 hPa | 0 mm | - | - | - |
| 1778052917 | 12.78° C | 55% | 1020 hPa | 0 mm | - | - | - |
| 1778052317 | 12.78° C | 53% | 1020 hPa | 0 mm | - | - | - |
| 1778051717 | 13.33° C | 52% | 1020.5 hPa | 0 mm | - | - | - |
| 1778051117 | 13.33° C | 52% | 1020.1 hPa | 0 mm | - | - | - |
| 1778049317 | 13.33° C | 54% | 1019.7 hPa | 0 mm | - | - | - |
| 1778048717 | 14.44° C | 53% | 1019.9 hPa | 0 mm | - | - | - |
| 1778048117 | 15° C | 45% | 1020.2 hPa | 0 mm | - | - | - |
| 1778046917 | 15° C | 44% | 1019.8 hPa | 0 mm | - | - | - |
| 1778046317 | 15° C | 46% | 1019.9 hPa | 0 mm | - | - | - |
| 1778045717 | 15.56° C | 44% | 1019.8 hPa | 0 mm | - | - | - |
| 1778045117 | 15.56° C | 43% | 1019.6 hPa | 0 mm | - | - | - |
| 1778044517 | 16.11° C | 42% | 1019.7 hPa | 0 mm | - | - | - |
* Rain latest hour (hover to see other rain measurements)
** Current wind speed in m/s (hover to see current wind gust speed)